createdAt,value
2022-10-11T00:00:20.419Z,100317.78
2022-10-11T00:02:49.789Z,100313.31
2022-10-11T00:05:18.090Z,100307.00
2022-10-11T00:07:46.028Z,100311.38
2022-10-11T00:10:14.077Z,100305.13
2022-10-11T00:12:42.144Z,100313.16
2022-10-11T00:15:13.238Z,100314.97
2022-10-11T00:17:41.255Z,100310.53
2022-10-11T00:20:13.099Z,100291.16
2022-10-11T00:22:42.558Z,100278.78
2022-10-11T00:25:12.721Z,100310.72
2022-10-11T00:27:40.968Z,100305.47
2022-10-11T00:30:10.893Z,100309.84
2022-10-11T00:32:39.898Z,100301.97
2022-10-11T00:35:10.949Z,100259.78
2022-10-11T00:37:40.534Z,100289.72
2022-10-11T00:40:12.178Z,100280.94
2022-10-11T00:42:40.077Z,100269.56
2022-10-11T00:46:11.230Z,100273.94
2022-10-11T00:48:42.390Z,100266.94
2022-10-11T00:51:17.921Z,100256.41
2022-10-11T00:53:48.532Z,100252.03
2022-10-11T00:56:24.155Z,100278.31
2022-10-11T00:58:52.902Z,100268.66
2022-10-11T01:01:21.249Z,100259.91
2022-10-11T01:03:49.219Z,100266.88
2022-10-11T01:06:18.437Z,100264.22
2022-10-11T01:08:46.424Z,100256.25
2022-10-11T01:11:18.460Z,100252.69
2022-10-11T01:13:56.923Z,100244.69
2022-10-11T01:16:33.273Z,100246.34
2022-10-11T01:19:16.041Z,100253.34
2022-10-11T01:21:53.536Z,100263.88
2022-10-11T01:24:35.631Z,100256.81
2022-10-11T01:27:20.137Z,100257.66
2022-10-11T01:29:57.342Z,100252.34
2022-10-11T01:32:33.436Z,100254.06
2022-10-11T01:35:09.762Z,100235.63
2022-10-11T01:37:40.145Z,100243.53
2022-10-11T01:40:12.441Z,100244.34
2022-10-11T01:42:41.628Z,100246.97
2022-10-11T01:45:14.015Z,100230.34
2022-10-11T01:47:45.998Z,100232.97
2022-10-11T01:50:37.976Z,100212.78
2022-10-11T01:53:22.052Z,100178.28
2022-10-11T01:55:54.321Z,100201.16
2022-10-11T01:58:34.688Z,100221.47
2022-10-11T02:01:14.224Z,100210.88
2022-10-11T02:03:48.434Z,100225.91
2022-10-11T02:06:24.902Z,100227.69
2022-10-11T02:09:02.268Z,100219.84
2022-10-11T02:11:36.065Z,100220.72
2022-10-11T02:14:09.646Z,100224.22
2022-10-11T02:16:42.854Z,100212.88
2022-10-11T02:19:15.328Z,100192.66
2022-10-11T02:21:46.505Z,100193.44
2022-10-11T02:24:20.078Z,100194.44
2022-10-11T02:26:52.993Z,100208.59
2022-10-11T02:29:24.481Z,100207.72
2022-10-11T02:31:53.666Z,100209.38
2022-10-11T02:34:27.101Z,100212.03
2022-10-11T02:37:03.779Z,100212.03
2022-10-11T02:39:38.524Z,100211.13
2022-10-11T02:42:10.978Z,100224.22
2022-10-11T02:44:44.127Z,100219.72
2022-10-11T02:47:13.109Z,100210.84
2022-10-11T02:49:42.390Z,100220.38
2022-10-11T02:52:10.565Z,100217.59
2022-10-11T02:54:38.461Z,100208.63
2022-10-11T02:57:06.312Z,100203.13
2022-10-11T02:59:34.863Z,100187.00
2022-10-11T03:02:02.986Z,100197.38
2022-10-11T03:04:30.871Z,100194.78
2022-10-11T03:07:00.188Z,100193.84
2022-10-11T03:09:28.133Z,100197.31
2022-10-11T03:11:55.928Z,100202.50
2022-10-11T03:14:24.892Z,100199.81
2022-10-11T03:16:52.865Z,100194.59
2022-10-11T03:19:20.754Z,100198.06
2022-10-11T03:21:48.764Z,100194.56
2022-10-11T03:24:18.036Z,100191.91
2022-10-11T03:26:45.947Z,100182.19
2022-10-11T03:29:13.945Z,100197.16
2022-10-11T03:31:41.907Z,100198.84
2022-10-11T03:34:10.635Z,100204.94
2022-10-11T03:36:38.756Z,100203.13
2022-10-11T03:39:06.896Z,100187.22
2022-10-11T03:41:36.256Z,100207.47
2022-10-11T03:44:04.436Z,100196.84
2022-10-11T03:46:32.628Z,100203.88
2022-10-11T03:49:00.788Z,100209.13
2022-10-11T03:51:28.714Z,100203.84
2022-10-11T03:53:56.767Z,100194.19
2022-10-11T03:56:24.817Z,100186.25
2022-10-11T03:58:54.108Z,100198.47
2022-10-11T04:01:22.086Z,100201.84
2022-10-11T04:03:50.137Z,100201.78
2022-10-11T04:06:18.187Z,100206.09
2022-10-11T04:08:46.440Z,100215.69
2022-10-11T04:11:14.253Z,100210.31
2022-10-11T04:13:42.249Z,100199.84
2022-10-11T04:16:11.577Z,100213.03
2022-10-11T04:18:39.451Z,100206.88
2022-10-11T04:21:07.460Z,100217.31
2022-10-11T04:23:35.885Z,100223.38
2022-10-11T04:26:06.588Z,100204.97
2022-10-11T04:28:36.145Z,100209.50
2022-10-11T04:31:06.646Z,100218.19
2022-10-11T04:33:36.031Z,100211.22
2022-10-11T04:36:04.297Z,100212.16
2022-10-11T04:38:32.418Z,100210.41
2022-10-11T04:41:07.630Z,100210.41
2022-10-11T04:43:35.523Z,100211.31
2022-10-11T04:46:04.458Z,100206.94
2022-10-11T04:48:32.721Z,100212.19
2022-10-11T04:51:01.999Z,100194.34
2022-10-11T04:53:30.184Z,100203.31
2022-10-11T04:56:01.165Z,100219.16
2022-10-11T04:58:29.890Z,100174.88
2022-10-11T05:00:58.260Z,100222.66
2022-10-11T05:03:26.489Z,100168.66
2022-10-11T05:05:54.715Z,100217.47
2022-10-11T05:08:24.467Z,100220.94
2022-10-11T05:10:58.822Z,100208.47
2022-10-11T05:13:27.741Z,100221.81
2022-10-11T05:15:55.783Z,100247.97
2022-10-11T05:18:24.202Z,100214.66
2022-10-11T05:21:00.094Z,100236.63
2022-10-11T05:23:29.790Z,100229.59
2022-10-11T05:25:58.073Z,100231.38
2022-10-11T05:28:26.496Z,100243.63
2022-10-11T05:30:54.792Z,100214.53
2022-10-11T05:33:23.063Z,100242.53
2022-10-11T05:35:51.083Z,100268.00
2022-10-11T05:38:19.280Z,100253.13
2022-10-11T05:40:48.745Z,100245.25
2022-10-11T05:43:16.739Z,100260.03
2022-10-11T05:45:45.571Z,100264.28
2022-10-11T05:48:13.829Z,100268.56
2022-10-11T05:50:41.700Z,100164.00
2022-10-11T05:53:09.669Z,100279.69
2022-10-11T05:55:38.298Z,100287.63
2022-10-11T05:58:08.485Z,100276.94
2022-10-11T06:00:38.113Z,100290.06
2022-10-11T06:03:06.519Z,100273.34
2022-10-11T06:05:35.976Z,100272.88
2022-10-11T06:08:04.210Z,100294.75
2022-10-11T06:10:32.166Z,100305.22
2022-10-11T06:13:00.121Z,100312.13
2022-10-11T06:15:29.747Z,100297.03
2022-10-11T06:17:58.079Z,100309.41
2022-10-11T06:20:26.100Z,100348.94
2022-10-11T06:22:54.145Z,100345.41
2022-10-11T06:25:22.206Z,100340.31
2022-10-11T06:27:50.045Z,100343.69
2022-10-11T06:30:18.254Z,100331.94
2022-10-11T06:32:47.516Z,100363.59
2022-10-11T06:35:15.436Z,100357.56
2022-10-11T06:37:43.508Z,100353.25
2022-10-11T06:40:12.625Z,100360.38
2022-10-11T06:42:40.484Z,100350.88
2022-10-11T06:45:09.201Z,100364.63
2022-10-11T06:47:37.226Z,100360.66
2022-10-11T06:50:06.967Z,100351.41
2022-10-11T06:52:34.932Z,100349.13
2022-10-11T06:55:02.893Z,100356.44
2022-10-11T06:57:30.769Z,100361.63
2022-10-11T06:59:58.948Z,100358.03
2022-10-11T07:02:26.947Z,100373.13
2022-10-11T07:04:54.799Z,100364.66
2022-10-11T07:07:24.266Z,100369.28
2022-10-11T07:09:52.467Z,100371.25
2022-10-11T07:12:20.962Z,100378.50
2022-10-11T07:14:48.972Z,100379.75
2022-10-11T07:17:16.940Z,100394.75
2022-10-11T07:19:44.863Z,100370.03
2022-10-11T07:22:12.834Z,100384.47
2022-10-11T07:24:42.108Z,100397.03
2022-10-11T07:27:10.039Z,100389.22
2022-10-11T07:29:38.077Z,100381.56
2022-10-11T07:32:06.143Z,100385.59
2022-10-11T07:34:34.371Z,100385.59
2022-10-11T07:37:02.381Z,100400.41
2022-10-11T07:39:31.638Z,100393.50
2022-10-11T07:42:00.957Z,100397.28
2022-10-11T07:44:28.931Z,100411.31
2022-10-11T07:46:56.900Z,100404.41
2022-10-11T07:49:24.790Z,100387.00
2022-10-11T07:51:52.733Z,100414.47
2022-10-11T07:54:20.636Z,100417.44
2022-10-11T07:56:48.453Z,100419.88
2022-10-11T07:59:17.785Z,100425.47
2022-10-11T08:01:45.807Z,100441.69
2022-10-11T08:04:13.791Z,100441.63
2022-10-11T08:06:42.668Z,100445.63
2022-10-11T08:09:10.575Z,100439.16
2022-10-11T08:11:39.469Z,100428.03
2022-10-11T08:14:11.571Z,100423.56
2022-10-11T08:16:41.254Z,100456.81
2022-10-11T08:19:09.193Z,100440.06
2022-10-11T08:21:37.358Z,100449.22
2022-10-11T08:24:06.774Z,100448.91
2022-10-11T08:26:36.189Z,100449.78
2022-10-11T08:29:05.331Z,100452.81
2022-10-11T08:31:34.878Z,100461.75
2022-10-11T08:34:04.575Z,100462.84
2022-10-11T08:36:32.565Z,100459.72
2022-10-11T08:39:02.193Z,100469.84
2022-10-11T08:41:39.264Z,100474.03
2022-10-11T08:44:41.377Z,100469.53
2022-10-11T08:47:25.154Z,100475.38
2022-10-11T08:49:54.530Z,100461.09
2022-10-11T08:52:24.626Z,100482.00
2022-10-11T08:54:56.740Z,100486.00
2022-10-11T08:57:27.862Z,100445.34
2022-10-11T09:00:00.111Z,100477.09
2022-10-11T09:03:03.386Z,100479.88
2022-10-11T09:05:36.241Z,100484.66
2022-10-11T09:08:11.635Z,100496.00
2022-10-11T09:10:56.868Z,100492.34
2022-10-11T09:13:43.699Z,100495.56
2022-10-11T09:16:23.718Z,100487.31
2022-10-11T09:19:08.562Z,100466.03
2022-10-11T09:21:43.391Z,100495.47
2022-10-11T09:24:32.613Z,100498.31
2022-10-11T09:27:06.805Z,100509.44
2022-10-11T09:29:48.889Z,100505.00
2022-10-11T09:32:21.049Z,100507.91
2022-10-11T09:34:50.975Z,100499.97
2022-10-11T09:37:28.357Z,100508.38
2022-10-11T09:40:01.372Z,100517.41
2022-10-11T09:42:29.452Z,100509.47
2022-10-11T09:44:57.551Z,100509.50
2022-10-11T09:47:27.268Z,100508.44
2022-10-11T09:50:01.643Z,100519.13
2022-10-11T09:52:31.853Z,100516.41
2022-10-11T09:55:01.257Z,100508.34
2022-10-11T09:57:31.139Z,100525.09
2022-10-11T10:00:01.778Z,100539.94
2022-10-11T10:02:30.368Z,100540.81
2022-10-11T10:05:15.921Z,100542.72
2022-10-11T10:10:42.327Z,100545.97
2022-10-11T10:13:21.813Z,100551.13
2022-10-11T10:15:53.701Z,100556.56
2022-10-11T10:18:25.393Z,100550.56
2022-10-11T10:20:56.075Z,100554.16
2022-10-11T10:23:27.738Z,100559.63
2022-10-11T10:29:00.528Z,100579.19
2022-10-11T10:31:49.462Z,100586.53
2022-10-11T10:34:29.764Z,100569.03
2022-10-11T10:37:02.001Z,100580.38
2022-10-11T10:39:38.325Z,100597.91
2022-10-11T10:42:15.090Z,100595.91
2022-10-11T10:44:46.248Z,100616.94
2022-10-11T10:47:22.604Z,100602.06
2022-10-11T10:49:58.600Z,100604.81
2022-10-11T10:52:43.600Z,100500.13
2022-10-11T10:55:23.029Z,100601.38
2022-10-11T10:58:05.160Z,100610.22
2022-10-11T11:00:40.626Z,100612.75
2022-10-11T11:03:17.226Z,100613.34
2022-10-11T11:05:49.730Z,100633.56
2022-10-11T11:08:28.470Z,100621.13
2022-10-11T11:11:04.312Z,100625.97
2022-10-11T11:13:40.097Z,100607.56
2022-10-11T11:16:15.532Z,100641.84
2022-10-11T11:18:54.503Z,100624.97
2022-10-11T11:21:41.243Z,100638.88
2022-10-11T11:24:19.750Z,100611.94
2022-10-11T11:26:53.110Z,100632.59
2022-10-11T11:29:40.129Z,100638.38
2022-10-11T11:32:22.622Z,100638.81
2022-10-11T11:34:55.949Z,100601.66
2022-10-11T11:37:29.775Z,100609.22
2022-10-11T11:40:03.473Z,100607.47
2022-10-11T11:42:40.674Z,100661.94
2022-10-11T11:45:17.960Z,100646.00
2022-10-11T11:47:53.601Z,100655.84
2022-10-11T11:50:25.176Z,100670.78
2022-10-11T11:52:55.326Z,100670.00
2022-10-11T11:55:30.913Z,100673.53
2022-10-11T11:58:10.039Z,100693.53
2022-10-11T12:00:50.094Z,100689.13
2022-10-11T12:03:23.050Z,100705.78
2022-10-11T12:06:24.117Z,100682.44
2022-10-11T12:09:03.715Z,100693.81
2022-10-11T12:11:42.882Z,100705.38
2022-10-11T12:14:24.902Z,100697.09
2022-10-11T12:17:23.767Z,100671.53
2022-10-11T12:20:22.336Z,100716.84
2022-10-11T12:22:58.278Z,100684.91
2022-10-11T12:25:45.249Z,100715.63
2022-10-11T12:29:00.555Z,100712.31
2022-10-11T12:31:29.921Z,100741.16
2022-10-11T12:34:18.684Z,100748.06
2022-10-11T12:36:49.301Z,100699.75
2022-10-11T12:39:53.659Z,100745.19
2022-10-11T12:42:34.081Z,100742.69
2022-10-11T12:45:33.731Z,100760.59
2022-10-11T12:48:18.721Z,100760.00
2022-10-11T12:51:02.168Z,100759.28
2022-10-11T12:54:25.496Z,100762.03
2022-10-11T12:57:11.007Z,100782.44
2022-10-11T12:59:44.637Z,100772.41
2022-10-11T13:02:28.717Z,100783.19
2022-10-11T13:05:08.339Z,100786.81
2022-10-11T13:07:36.810Z,100783.34
2022-10-11T13:10:07.134Z,100793.03
2022-10-11T13:12:41.787Z,100776.25
2022-10-11T13:15:15.974Z,100804.38
2022-10-11T13:17:44.456Z,100816.78
2022-10-11T13:20:20.745Z,100797.38
2022-10-11T13:22:52.975Z,100784.22
2022-10-11T13:25:25.789Z,100805.53
2022-10-11T13:27:56.085Z,100811.84
2022-10-11T13:30:28.003Z,100796.00
2022-10-11T13:32:56.590Z,100811.06
2022-10-11T13:35:30.538Z,100818.16
2022-10-11T13:37:58.993Z,100829.66
2022-10-11T13:40:29.301Z,100819.91
2022-10-11T13:42:57.845Z,100834.00
2022-10-11T13:45:30.733Z,100843.69
2022-10-11T13:47:59.068Z,100831.38
2022-10-11T13:50:32.386Z,100836.72
2022-10-11T13:53:02.187Z,100849.09
2022-10-11T13:55:34.643Z,100848.22
2022-10-11T13:58:04.612Z,100853.50
2022-10-11T14:00:34.997Z,100865.88
2022-10-11T14:03:06.514Z,100873.84
2022-10-11T14:05:37.802Z,100865.88
2022-10-11T14:08:08.041Z,100855.28
2022-10-11T14:10:37.476Z,100872.03
2022-10-11T14:13:21.989Z,100865.75
2022-10-11T14:16:00.598Z,100877.25
2022-10-11T14:18:44.433Z,100882.53
2022-10-11T14:21:34.665Z,100888.41
2022-10-11T14:24:05.259Z,100893.69
2022-10-11T14:26:37.126Z,100900.81
2022-10-11T14:29:09.482Z,100910.38
2022-10-11T14:31:41.469Z,100914.59
2022-10-11T14:34:16.384Z,100909.84
2022-10-11T14:36:44.379Z,100917.22
2022-10-11T14:39:16.864Z,100898.78
2022-10-11T14:41:46.839Z,100924.78
2022-10-11T14:44:16.771Z,100910.81
2022-10-11T14:46:45.468Z,100928.84
2022-10-11T14:49:16.002Z,100940.03
2022-10-11T14:51:45.837Z,100937.03
2022-10-11T14:54:14.884Z,100956.03
2022-10-11T14:56:43.077Z,100964.28
2022-10-11T14:59:15.439Z,100958.75
2022-10-11T15:01:43.802Z,100962.00
2022-10-11T15:04:11.620Z,100884.47
2022-10-11T15:06:41.688Z,100974.84
2022-10-11T15:09:09.939Z,100970.22
2022-10-11T15:11:38.879Z,100962.13
2022-10-11T15:14:06.798Z,100980.50
2022-10-11T15:16:36.731Z,100976.84
2022-10-11T15:19:04.736Z,100990.75
2022-10-11T15:21:32.595Z,100996.72
2022-10-11T15:24:00.801Z,100994.91
2022-10-11T15:26:30.493Z,101009.53
2022-10-11T15:28:58.779Z,100999.81
2022-10-11T15:31:26.890Z,101006.69
2022-10-11T15:33:59.442Z,101004.56
2022-10-11T15:36:28.899Z,101023.84
2022-10-11T15:38:57.374Z,100975.91
2022-10-11T15:41:25.462Z,101028.88
2022-10-11T15:43:53.488Z,101044.56
2022-10-11T15:46:23.223Z,101039.19
2022-10-11T15:48:52.594Z,101015.84
2022-10-11T15:51:22.166Z,101045.06
2022-10-11T15:53:50.323Z,101051.97
2022-10-11T15:56:19.721Z,101064.94
2022-10-11T15:58:47.844Z,101062.25
2022-10-11T16:01:18.881Z,101057.69
2022-10-11T16:03:48.903Z,101006.63
2022-10-11T16:06:17.504Z,101076.50
2022-10-11T16:08:47.762Z,101043.63
2022-10-11T16:11:15.827Z,101087.00
2022-10-11T16:13:43.736Z,101080.78
2022-10-11T16:16:13.255Z,101072.38
2022-10-11T16:18:41.804Z,101090.28
2022-10-11T16:21:12.400Z,101031.41
2022-10-11T16:23:40.506Z,101091.69
2022-10-11T16:26:15.343Z,101081.78
2022-10-11T16:28:43.323Z,101074.69
2022-10-11T16:31:14.342Z,101098.53
2022-10-11T16:33:46.633Z,101107.97
2022-10-11T16:36:36.302Z,101096.16
2022-10-11T16:39:08.719Z,101112.19
2022-10-11T16:41:38.462Z,101119.91
2022-10-11T16:44:06.885Z,101123.25
2022-10-11T16:46:35.493Z,101128.41
2022-10-11T16:49:04.114Z,101125.63
2022-10-11T16:51:31.986Z,101130.84
2022-10-11T16:54:00.029Z,101130.69
2022-10-11T16:56:28.297Z,101135.75
2022-10-11T16:58:57.586Z,101139.09
2022-10-11T17:01:26.188Z,101093.34
2022-10-11T17:03:55.747Z,101005.94
2022-10-11T17:06:24.268Z,101144.69
2022-10-11T17:08:52.324Z,101087.19
2022-10-11T17:11:21.688Z,101158.31
2022-10-11T17:13:51.633Z,101099.22
2022-10-11T17:16:22.191Z,101159.72
2022-10-11T17:18:50.302Z,101162.13
2022-10-11T17:21:19.904Z,101167.19
2022-10-11T17:23:49.236Z,101172.25
2022-10-11T17:26:20.913Z,101167.81
2022-10-11T17:28:49.049Z,101172.03
2022-10-11T17:31:17.141Z,101179.78
2022-10-11T17:33:46.391Z,101160.88
2022-10-11T17:36:17.471Z,101181.22
2022-10-11T17:38:45.988Z,101152.63
2022-10-11T17:41:13.882Z,101186.34
2022-10-11T17:43:42.067Z,101187.91
2022-10-11T17:46:12.031Z,101187.78
2022-10-11T17:48:40.262Z,101189.41
2022-10-11T17:51:11.510Z,101190.06
2022-10-11T17:53:39.933Z,101195.28
2022-10-11T17:56:09.433Z,101205.66
2022-10-11T17:58:38.004Z,101209.94
2022-10-11T18:01:09.036Z,101215.03
2022-10-11T18:03:37.653Z,101220.22
2022-10-11T18:06:06.536Z,101215.81
2022-10-11T18:08:40.181Z,101217.53
2022-10-11T18:11:11.585Z,101214.88
2022-10-11T18:13:42.631Z,101226.88
2022-10-11T18:16:11.745Z,101187.44
2022-10-11T18:18:40.324Z,101216.53
2022-10-11T18:21:08.393Z,101235.00
2022-10-11T18:23:38.586Z,101246.19
2022-10-11T18:26:11.733Z,101183.47
2022-10-11T18:28:40.673Z,101246.69
2022-10-11T18:31:13.544Z,101244.78
2022-10-11T18:33:43.197Z,101254.22
2022-10-11T18:36:13.579Z,101172.00
2022-10-11T18:38:46.771Z,101248.63
2022-10-11T18:41:16.680Z,101245.88
2022-10-11T18:43:49.240Z,101253.78
2022-10-11T18:46:17.673Z,101220.63
2022-10-11T18:48:47.082Z,101067.78
2022-10-11T18:51:18.526Z,101256.03
2022-10-11T18:53:48.780Z,101260.22
2022-10-11T18:56:20.730Z,101263.53
2022-10-11T18:58:49.805Z,101260.81
2022-10-11T19:01:19.805Z,101207.75
2022-10-11T19:03:50.466Z,101268.38
2022-10-11T19:06:21.240Z,101242.16
2022-10-11T19:08:52.774Z,101274.16
2022-10-11T19:11:22.271Z,101273.06
2022-10-11T19:13:55.490Z,101143.59
2022-10-11T19:16:24.109Z,101280.78
2022-10-11T19:18:53.152Z,101261.03
2022-10-11T19:21:21.809Z,101285.88
2022-10-11T19:23:52.147Z,101284.91
2022-10-11T19:26:21.772Z,101284.63
2022-10-11T19:28:56.916Z,101254.03
2022-10-11T19:31:25.210Z,101290.53
2022-10-11T19:33:53.643Z,101280.50
2022-10-11T19:36:21.592Z,101279.47
2022-10-11T19:38:56.560Z,101253.56
2022-10-11T19:41:26.476Z,101261.38
2022-10-11T19:43:55.368Z,101291.78
2022-10-11T19:46:44.558Z,101300.34
2022-10-11T19:49:15.264Z,101302.06
2022-10-11T19:51:43.117Z,101296.91
2022-10-11T19:54:14.982Z,101220.72
2022-10-11T19:56:43.609Z,101288.66
2022-10-11T19:59:12.922Z,101310.13
2022-10-11T20:01:42.010Z,101314.59
2022-10-11T20:04:33.053Z,101315.56
2022-10-11T20:07:00.324Z,101277.13
2022-10-11T20:09:30.797Z,101324.34
2022-10-11T20:11:59.330Z,101324.50
2022-10-11T20:14:27.306Z,101321.88
2022-10-11T20:16:55.240Z,101326.13
2022-10-11T20:19:27.877Z,101285.78
2022-10-11T20:21:58.332Z,101326.53
2022-10-11T20:24:27.523Z,101331.56
2022-10-11T20:26:56.881Z,101328.88
2022-10-11T20:29:25.412Z,101336.66
2022-10-11T20:31:53.489Z,101322.94
2022-10-11T20:34:21.406Z,101341.59
2022-10-11T20:36:49.603Z,101342.34
2022-10-11T20:39:18.004Z,101270.72
2022-10-11T20:41:46.241Z,101350.03
2022-10-11T20:44:16.400Z,101348.25
2022-10-11T20:46:44.242Z,101353.38
2022-10-11T20:49:13.290Z,101323.78
2022-10-11T20:51:42.822Z,101333.84
2022-10-11T20:54:10.748Z,101353.38
2022-10-11T20:56:38.958Z,101358.47
2022-10-11T20:59:07.762Z,101354.75
2022-10-11T21:01:39.896Z,101343.09
2022-10-11T21:04:11.606Z,101365.13
2022-10-11T21:06:39.437Z,101356.34
2022-10-11T21:09:08.557Z,101356.22
2022-10-11T21:11:38.797Z,101358.81
2022-10-11T21:14:07.421Z,101359.63
2022-10-11T21:16:36.758Z,101353.44
2022-10-11T21:19:05.157Z,101289.59
2022-10-11T21:21:33.215Z,101339.44
2022-10-11T21:24:02.768Z,101359.72
2022-10-11T21:26:32.203Z,101354.66
2022-10-11T21:29:00.288Z,101370.63
2022-10-11T21:31:33.598Z,101370.38
2022-10-11T21:34:05.224Z,101377.16
2022-10-11T21:36:33.119Z,101371.13
2022-10-11T21:39:01.074Z,101380.69
2022-10-11T21:41:30.394Z,101381.34
2022-10-11T21:43:59.408Z,101381.13
2022-10-11T21:46:54.192Z,101384.41
2022-10-11T21:49:18.605Z,101356.50
2022-10-11T21:51:46.881Z,101376.13
2022-10-11T21:54:14.976Z,101386.69
2022-10-11T21:56:43.776Z,101312.28
2022-10-11T21:59:12.733Z,101386.53
2022-10-11T22:01:40.919Z,101353.13
2022-10-11T22:04:09.339Z,101392.97
2022-10-11T22:06:39.575Z,101395.50
2022-10-11T22:09:08.835Z,101403.25
2022-10-11T22:11:36.887Z,101394.13
2022-10-11T22:14:05.206Z,101400.41
2022-10-11T22:16:34.554Z,101316.44
2022-10-11T22:19:02.486Z,101370.72
2022-10-11T22:21:30.818Z,101395.78
2022-10-11T22:24:00.113Z,101347.88
2022-10-11T22:26:30.908Z,101395.16
2022-10-11T22:28:59.485Z,101396.63
2022-10-11T22:31:29.346Z,101398.09
2022-10-11T22:33:58.107Z,101395.34
2022-10-11T22:36:26.490Z,101376.47
2022-10-11T22:38:54.911Z,101396.06
2022-10-11T22:41:24.433Z,101398.69
2022-10-11T22:43:52.484Z,101384.94
2022-10-11T22:46:20.501Z,101402.84
2022-10-11T22:48:48.438Z,101398.44
2022-10-11T22:51:16.476Z,101386.41
2022-10-11T22:53:44.361Z,101414.00
2022-10-11T22:56:12.398Z,101416.53
2022-10-11T22:58:41.716Z,101409.53
2022-10-11T23:01:10.497Z,101408.22
2022-10-11T23:03:38.787Z,101390.56
2022-10-11T23:06:07.280Z,101394.72
2022-10-11T23:08:35.271Z,101414.25
2022-10-11T23:11:07.119Z,101421.03
2022-10-11T23:13:35.419Z,101397.50
2022-10-11T23:16:08.838Z,101422.25
2022-10-11T23:18:37.479Z,101424.59
2022-10-11T23:21:06.795Z,101396.66
2022-10-11T23:23:35.126Z,101428.84
2022-10-11T23:26:05.708Z,101437.38
2022-10-11T23:28:33.729Z,101323.59
2022-10-11T23:31:02.203Z,101414.00
2022-10-11T23:33:31.598Z,101433.63
2022-10-11T23:35:59.454Z,101439.56
2022-10-11T23:38:27.415Z,101443.81
2022-10-11T23:40:55.451Z,101446.25
2022-10-11T23:43:23.466Z,101415.69
2022-10-11T23:45:51.529Z,101448.75
2022-10-11T23:48:19.421Z,101449.66
2022-10-11T23:50:48.665Z,101445.72
2022-10-11T23:53:16.613Z,101459.81
2022-10-11T23:55:44.665Z,101465.84
2022-10-11T23:58:12.525Z,101466.66
